createdAt,value
2023-03-02T00:02:03.382Z,25.45
2023-03-02T00:04:52.645Z,25.20
2023-03-02T00:07:24.273Z,22.23
2023-03-02T00:09:51.439Z,25.58
2023-03-02T00:12:18.634Z,27.30
2023-03-02T00:14:45.827Z,23.67
2023-03-02T00:17:12.964Z,24.45
2023-03-02T00:19:40.323Z,24.52
2023-03-02T00:22:09.015Z,23.67
2023-03-02T00:24:37.386Z,26.10
2023-03-02T00:27:04.537Z,25.00
2023-03-02T00:29:31.900Z,24.85
2023-03-02T00:31:59.135Z,29.08
2023-03-02T00:34:26.249Z,25.95
2023-03-02T00:36:53.493Z,26.52
2023-03-02T00:39:21.077Z,26.42
2023-03-02T00:41:48.729Z,25.55
2023-03-02T00:44:17.470Z,24.00
2023-03-02T00:46:44.879Z,21.88
2023-03-02T00:49:12.806Z,23.63
2023-03-02T00:51:39.924Z,21.52
2023-03-02T00:54:07.046Z,26.13
2023-03-02T00:56:34.652Z,23.10
2023-03-02T00:59:27.499Z,20.73
2023-03-02T01:01:58.209Z,25.42
2023-03-02T01:04:31.561Z,23.60
2023-03-02T01:07:00.427Z,24.40
2023-03-02T01:09:27.870Z,22.30
2023-03-02T01:11:55.260Z,20.38
2023-03-02T01:14:23.020Z,23.55
2023-03-02T01:16:50.149Z,20.67
2023-03-02T01:19:17.474Z,19.67
2023-03-02T01:21:44.735Z,17.23
2023-03-02T01:24:11.939Z,20.55
2023-03-02T01:26:39.087Z,21.50
2023-03-02T01:29:06.283Z,21.23
2023-03-02T01:31:33.523Z,21.42
2023-03-02T01:34:00.793Z,20.35
2023-03-02T01:36:27.974Z,21.70
2023-03-02T01:38:55.276Z,19.88
2023-03-02T01:45:53.558Z,16.58
2023-03-02T01:48:28.942Z,19.25
2023-03-02T01:50:56.205Z,18.65
2023-03-02T01:53:26.288Z,19.52
2023-03-02T01:55:53.595Z,21.17
2023-03-02T01:58:20.936Z,20.30
2023-03-02T02:00:48.245Z,18.98
2023-03-02T02:03:21.070Z,20.02
2023-03-02T02:05:56.443Z,16.98
2023-03-02T02:08:23.994Z,18.40
2023-03-02T02:10:51.673Z,18.25
2023-03-02T02:13:19.041Z,21.67
2023-03-02T02:15:46.242Z,18.30
2023-03-02T02:18:13.486Z,18.38
2023-03-02T02:20:42.470Z,21.45
2023-03-02T02:23:19.250Z,24.23
2023-03-02T02:25:55.475Z,20.38
2023-03-02T02:28:27.152Z,18.02
2023-03-02T02:31:05.981Z,20.02
2023-03-02T02:33:34.119Z,19.63
2023-03-02T02:36:05.258Z,19.85
2023-03-02T02:38:33.799Z,17.55
2023-03-02T02:41:04.457Z,19.10
2023-03-02T02:43:32.844Z,21.40
2023-03-02T02:46:00.551Z,20.45
2023-03-02T02:48:31.204Z,20.23
2023-03-02T02:51:03.347Z,20.00
2023-03-02T02:53:41.860Z,21.67
2023-03-02T02:56:09.634Z,17.52
2023-03-02T02:58:43.800Z,19.45
2023-03-02T03:01:14.187Z,18.05
2023-03-02T03:03:46.555Z,17.98
2023-03-02T03:06:18.403Z,18.17
2023-03-02T03:08:49.090Z,19.13
2023-03-02T03:11:27.485Z,22.58
2023-03-02T03:14:20.896Z,17.27
2023-03-02T03:16:49.546Z,22.45
2023-03-02T03:19:18.378Z,18.23
2023-03-02T03:21:45.686Z,20.23
2023-03-02T03:24:13.096Z,24.65
2023-03-02T03:26:40.349Z,21.73
2023-03-02T03:29:07.623Z,24.23
2023-03-02T03:31:34.941Z,18.48
2023-03-02T03:34:02.746Z,23.05
2023-03-02T03:36:31.138Z,23.92
2023-03-02T03:38:59.035Z,23.58
2023-03-02T03:41:26.375Z,23.92
2023-03-02T03:43:53.630Z,24.80
2023-03-02T03:46:21.206Z,26.63
2023-03-02T03:48:48.424Z,20.92
2023-03-02T03:51:15.756Z,25.20
2023-03-02T03:53:42.978Z,22.70
2023-03-02T03:56:10.414Z,26.83
2023-03-02T03:58:37.872Z,29.50
2023-03-02T04:01:05.211Z,23.52
2023-03-02T04:03:32.456Z,30.15
2023-03-02T04:05:59.697Z,30.25
2023-03-02T04:08:27.704Z,29.05
2023-03-02T04:10:54.864Z,34.47
2023-03-02T04:13:22.000Z,29.45
2023-03-02T04:15:49.211Z,34.83
2023-03-02T04:18:16.378Z,27.83
2023-03-02T04:20:43.586Z,33.88
2023-03-02T04:23:10.859Z,26.90
2023-03-02T04:25:38.043Z,35.17
2023-03-02T04:28:05.350Z,36.40
2023-03-02T04:30:33.147Z,28.45
2023-03-02T04:33:00.439Z,27.27
2023-03-02T04:35:27.725Z,29.23
2023-03-02T04:37:54.993Z,32.38
2023-03-02T04:40:22.224Z,34.28
2023-03-02T04:42:50.649Z,34.25
2023-03-02T04:45:17.993Z,32.72
2023-03-02T04:47:45.150Z,32.25
2023-03-02T04:50:13.844Z,30.15
2023-03-02T04:52:41.797Z,31.83
2023-03-02T04:55:09.493Z,31.63
2023-03-02T04:57:36.776Z,29.02
2023-03-02T05:00:04.930Z,31.95
2023-03-02T05:02:32.264Z,27.55
2023-03-02T05:04:59.523Z,34.03
2023-03-02T05:07:27.859Z,30.05
2023-03-02T05:09:55.102Z,26.77
2023-03-02T05:12:22.281Z,29.10
2023-03-02T05:14:49.487Z,30.17
2023-03-02T05:17:16.675Z,24.55
2023-03-02T05:19:43.833Z,25.88
2023-03-02T05:22:11.036Z,27.80
2023-03-02T05:24:38.334Z,22.17
2023-03-02T05:27:05.489Z,26.52
2023-03-02T05:29:32.685Z,28.05
2023-03-02T05:31:59.943Z,33.58
2023-03-02T05:34:27.711Z,26.50
2023-03-02T05:36:54.991Z,29.10
2023-03-02T05:39:22.228Z,33.15
2023-03-02T05:41:49.506Z,34.38
2023-03-02T05:44:16.727Z,31.40
2023-03-02T05:46:43.955Z,30.30
2023-03-02T05:49:11.271Z,27.90
2023-03-02T05:51:38.402Z,35.65
2023-03-02T05:54:05.670Z,32.72
2023-03-02T05:56:33.336Z,32.72
2023-03-02T05:59:00.776Z,36.58
2023-03-02T06:01:27.948Z,32.58
2023-03-02T06:03:55.828Z,31.92
2023-03-02T06:06:23.080Z,35.72
2023-03-02T06:08:50.253Z,34.03
2023-03-02T06:11:17.412Z,41.45
2023-03-02T06:13:44.667Z,34.85
2023-03-02T06:16:11.831Z,32.17
2023-03-02T06:18:41.387Z,34.75
2023-03-02T06:21:08.963Z,33.30
2023-03-02T06:23:36.156Z,39.08
2023-03-02T06:26:10.742Z,38.60
2023-03-02T06:28:51.358Z,41.10
2023-03-02T06:31:20.744Z,37.00
2023-03-02T06:33:48.093Z,35.67
2023-03-02T06:36:16.916Z,34.83
2023-03-02T06:38:44.674Z,42.90
2023-03-02T06:41:11.852Z,38.47
2023-03-02T06:43:39.128Z,39.83
2023-03-02T06:46:06.728Z,38.05
2023-03-02T06:48:33.995Z,34.72
2023-03-02T06:51:01.303Z,39.28
2023-03-02T06:53:28.638Z,38.90
2023-03-02T06:55:55.828Z,38.10
2023-03-02T06:58:22.997Z,41.13
2023-03-02T07:00:50.171Z,50.53
2023-03-02T07:03:17.859Z,43.38
2023-03-02T07:05:46.315Z,39.88
2023-03-02T07:08:13.701Z,44.58
2023-03-02T07:10:40.857Z,38.92
2023-03-02T07:13:09.248Z,42.70
2023-03-02T07:15:39.138Z,41.10
2023-03-02T07:18:06.558Z,47.60
2023-03-02T07:20:34.236Z,41.35
2023-03-02T07:23:02.186Z,41.33
2023-03-02T07:25:29.462Z,41.97
2023-03-02T07:27:56.641Z,44.67
2023-03-02T07:30:23.935Z,44.33
2023-03-02T07:32:51.476Z,44.97
2023-03-02T07:35:18.996Z,40.78
2023-03-02T07:37:46.281Z,41.30
2023-03-02T07:40:13.832Z,39.10
2023-03-02T07:42:41.299Z,40.45
2023-03-02T07:45:08.891Z,34.13
2023-03-02T07:47:36.164Z,40.17
2023-03-02T07:50:03.871Z,36.80
2023-03-02T07:52:31.106Z,34.10
2023-03-02T07:54:58.314Z,35.10
2023-03-02T07:57:25.605Z,39.47
2023-03-02T07:59:52.880Z,31.35
2023-03-02T08:02:22.664Z,32.90
2023-03-02T08:04:49.902Z,28.50
2023-03-02T08:07:18.914Z,31.33
2023-03-02T08:09:46.215Z,32.40
2023-03-02T08:12:13.437Z,36.38
2023-03-02T08:14:40.773Z,31.92
2023-03-02T08:17:08.408Z,34.58
2023-03-02T08:19:35.645Z,32.58
2023-03-02T08:22:02.832Z,37.20
2023-03-02T08:24:30.081Z,36.33
2023-03-02T08:27:00.980Z,30.52
2023-03-02T08:29:28.397Z,33.55
2023-03-02T08:31:55.678Z,31.15
2023-03-02T08:34:22.994Z,35.15
2023-03-02T08:36:50.260Z,34.50
2023-03-02T08:39:17.833Z,35.72
2023-03-02T08:41:45.125Z,35.22
2023-03-02T08:44:12.307Z,32.65
2023-03-02T08:46:39.549Z,31.48
2023-03-02T08:49:06.749Z,35.20
2023-03-02T08:51:34.282Z,34.65
2023-03-02T08:54:02.536Z,30.52
2023-03-02T08:56:33.142Z,35.63
2023-03-02T08:59:04.308Z,36.30
2023-03-02T09:01:36.161Z,37.92
2023-03-02T09:04:05.354Z,34.67
2023-03-02T09:06:35.410Z,33.60
2023-03-02T09:09:03.789Z,30.98
2023-03-02T09:11:31.890Z,31.88
2023-03-02T09:13:59.316Z,31.52
2023-03-02T09:16:26.853Z,32.97
2023-03-02T09:18:55.217Z,30.42
2023-03-02T09:21:22.667Z,30.40
2023-03-02T09:23:53.720Z,32.42
2023-03-02T09:26:21.050Z,36.00
2023-03-02T09:28:48.284Z,30.40
2023-03-02T09:31:15.481Z,31.60
2023-03-02T09:33:42.830Z,33.58
2023-03-02T09:36:11.615Z,32.15
2023-03-02T09:38:38.824Z,31.45
2023-03-02T09:41:21.019Z,34.53
2023-03-02T09:44:08.561Z,31.20
2023-03-02T09:46:56.708Z,32.10
2023-03-02T09:49:35.322Z,24.65
2023-03-02T09:52:23.999Z,26.52
2023-03-02T09:54:51.417Z,27.15
2023-03-02T09:57:24.056Z,26.63
2023-03-02T10:00:09.435Z,23.60
2023-03-02T10:02:55.396Z,23.30
2023-03-02T10:05:28.038Z,25.02
2023-03-02T10:07:57.410Z,25.73
2023-03-02T10:10:52.577Z,24.70
2023-03-02T10:13:23.796Z,23.70
2023-03-02T10:16:13.496Z,24.58
2023-03-02T10:18:59.184Z,23.85
2023-03-02T10:21:59.715Z,21.85
2023-03-02T10:25:08.186Z,23.33
2023-03-02T10:27:38.918Z,24.38
2023-03-02T10:30:27.594Z,24.67
2023-03-02T10:32:56.748Z,22.98
2023-03-02T10:35:25.769Z,24.08
2023-03-02T10:38:00.395Z,21.40
2023-03-02T10:41:03.176Z,21.15
2023-03-02T10:43:55.643Z,21.25
2023-03-02T10:46:22.823Z,22.75
2023-03-02T10:48:56.325Z,20.27
2023-03-02T10:51:26.077Z,23.27
2023-03-02T10:54:07.729Z,18.98
2023-03-02T10:56:35.365Z,21.23
2023-03-02T10:59:25.045Z,18.83
2023-03-02T11:02:02.919Z,18.75
2023-03-02T11:04:31.487Z,19.58
2023-03-02T11:07:09.008Z,19.65
2023-03-02T11:09:36.142Z,24.95
2023-03-02T11:12:03.374Z,17.33
2023-03-02T11:14:30.541Z,18.98
2023-03-02T11:17:00.969Z,16.33
2023-03-02T11:19:35.834Z,18.42
2023-03-02T11:22:09.364Z,18.20
2023-03-02T11:24:43.446Z,16.55
2023-03-02T11:27:15.899Z,16.65
2023-03-02T11:29:53.356Z,17.33
2023-03-02T11:32:26.587Z,17.48
2023-03-02T11:35:00.692Z,18.92
2023-03-02T11:37:47.080Z,19.58
2023-03-02T11:40:32.150Z,21.90
2023-03-02T11:43:00.310Z,19.25
2023-03-02T11:45:33.574Z,17.48
2023-03-02T11:48:12.640Z,19.65
2023-03-02T11:50:53.555Z,17.88
2023-03-02T11:53:21.074Z,19.45
2023-03-02T11:55:50.681Z,18.50
2023-03-02T11:58:20.715Z,20.13
2023-03-02T12:00:48.998Z,18.90
2023-03-02T12:03:16.123Z,20.88
2023-03-02T12:06:06.693Z,20.00
2023-03-02T12:08:46.439Z,21.50
2023-03-02T12:11:16.435Z,19.65
2023-03-02T12:14:05.523Z,17.25
2023-03-02T12:16:40.254Z,21.60
2023-03-02T12:19:16.657Z,21.08
2023-03-02T12:21:56.932Z,19.10
2023-03-02T12:24:31.049Z,18.58
2023-03-02T12:27:02.162Z,17.08
2023-03-02T12:29:45.756Z,21.48
2023-03-02T12:32:18.863Z,16.80
2023-03-02T12:35:08.516Z,14.90
2023-03-02T12:37:53.278Z,15.98
2023-03-02T12:40:33.915Z,16.23
2023-03-02T12:43:27.071Z,17.60
2023-03-02T12:46:27.612Z,15.80
2023-03-02T12:48:57.851Z,16.63
2023-03-02T12:51:27.786Z,17.60
2023-03-02T12:54:05.869Z,15.57
2023-03-02T12:56:34.040Z,14.65
2023-03-02T12:59:01.436Z,15.93
2023-03-02T13:01:30.928Z,15.75
2023-03-02T13:03:58.686Z,14.73
2023-03-02T13:06:28.373Z,14.98
2023-03-02T13:08:56.687Z,15.45
2023-03-02T13:11:31.135Z,14.63
2023-03-02T13:13:59.858Z,14.27
2023-03-02T13:16:33.020Z,13.20
2023-03-02T13:19:02.964Z,15.10
2023-03-02T13:21:38.150Z,14.18
2023-03-02T13:24:28.401Z,11.30
2023-03-02T13:26:57.653Z,12.10
2023-03-02T13:29:28.483Z,14.10
2023-03-02T13:31:55.846Z,11.15
2023-03-02T13:34:28.504Z,12.35
2023-03-02T13:36:55.679Z,9.35
2023-03-02T13:39:28.289Z,10.65
2023-03-02T13:42:00.196Z,9.07
2023-03-02T13:44:30.749Z,9.57
2023-03-02T13:46:58.458Z,12.02
2023-03-02T13:49:31.214Z,8.43
2023-03-02T13:52:22.395Z,11.93
2023-03-02T13:54:49.578Z,11.20
2023-03-02T13:57:30.649Z,8.30
2023-03-02T13:59:59.513Z,8.02
2023-03-02T14:02:29.510Z,7.75
2023-03-02T14:04:57.600Z,7.78
2023-03-02T14:07:24.852Z,7.68
2023-03-02T14:09:52.022Z,6.80
2023-03-02T14:12:30.984Z,7.70
2023-03-02T14:15:00.794Z,8.05
2023-03-02T14:17:28.155Z,7.65
2023-03-02T14:19:55.753Z,10.20
2023-03-02T14:22:26.631Z,8.98
2023-03-02T14:24:54.751Z,9.13
2023-03-02T14:27:30.034Z,9.98
2023-03-02T14:29:57.352Z,11.63
2023-03-02T14:32:24.552Z,11.82
2023-03-02T14:34:51.827Z,12.93
2023-03-02T14:37:22.199Z,9.80
2023-03-02T14:39:56.755Z,11.73
2023-03-02T14:42:25.139Z,10.57
2023-03-02T14:44:52.628Z,13.63
2023-03-02T14:47:21.654Z,10.25
2023-03-02T14:49:49.430Z,14.82
2023-03-02T14:52:25.055Z,15.73
2023-03-02T14:57:28.223Z,23.10
2023-03-02T14:59:56.157Z,28.95
2023-03-02T15:02:26.786Z,32.28
2023-03-02T15:04:57.063Z,37.70
2023-03-02T15:07:27.682Z,42.33
2023-03-02T15:09:58.423Z,45.30
2023-03-02T15:12:27.815Z,54.22
2023-03-02T15:14:55.125Z,57.28
2023-03-02T15:17:22.330Z,59.97
2023-03-02T15:19:49.580Z,63.65
2023-03-02T15:22:16.857Z,72.93
2023-03-02T15:24:44.054Z,78.32
2023-03-02T15:27:11.208Z,81.22
2023-03-02T15:29:38.570Z,75.05
2023-03-02T15:32:05.937Z,75.40
2023-03-02T15:34:33.137Z,74.57
2023-03-02T15:37:01.412Z,71.53
2023-03-02T15:39:28.571Z,65.70
2023-03-02T15:41:55.809Z,64.18
2023-03-02T15:44:24.742Z,57.85
2023-03-02T15:46:56.240Z,56.45
2023-03-02T15:49:24.473Z,60.90
2023-03-02T15:51:52.958Z,64.68
2023-03-02T15:54:21.245Z,66.07
2023-03-02T15:56:53.586Z,65.85
2023-03-02T15:59:25.676Z,63.25
2023-03-02T16:01:59.204Z,62.15
2023-03-02T16:04:27.063Z,51.10
2023-03-02T16:06:54.993Z,56.00
2023-03-02T16:09:23.513Z,48.17
2023-03-02T16:11:50.860Z,52.00
2023-03-02T16:14:18.674Z,53.95
2023-03-02T16:16:46.233Z,59.38
2023-03-02T16:19:17.188Z,62.60
2023-03-02T16:21:46.955Z,69.65
2023-03-02T16:24:16.105Z,62.47
2023-03-02T16:26:43.566Z,51.28
2023-03-02T16:29:12.143Z,50.60
2023-03-02T16:31:42.205Z,49.92
2023-03-02T16:34:10.074Z,45.30
2023-03-02T16:36:39.013Z,52.67
2023-03-02T16:39:07.197Z,51.28
2023-03-02T16:41:35.149Z,58.40
2023-03-02T16:44:02.685Z,56.88
2023-03-02T16:46:31.985Z,47.25
2023-03-02T16:48:59.480Z,51.58
2023-03-02T16:51:26.712Z,49.67
2023-03-02T16:53:54.140Z,46.80
2023-03-02T16:56:21.577Z,49.10
2023-03-02T16:58:49.194Z,46.55
2023-03-02T17:01:19.100Z,42.20
2023-03-02T17:03:47.462Z,36.83
2023-03-02T17:06:16.114Z,31.48
2023-03-02T17:08:43.425Z,31.02
2023-03-02T17:11:10.847Z,29.45
2023-03-02T17:13:39.049Z,29.05
2023-03-02T17:16:06.650Z,31.55
2023-03-02T17:18:33.978Z,40.33
2023-03-02T17:21:02.268Z,34.88
2023-03-02T17:23:31.180Z,27.27
2023-03-02T17:25:58.510Z,30.42
2023-03-02T17:28:26.072Z,30.15
